Time;durP1;ratioP1;P1;durP2;ratioP2;P2;SDS_P1;SDS_P2;PMS_P1;PMS_P2;Temp;Humidity;BMP_temperature;BMP_pressure;BME280_temperature;BME280_humidity;BME280_pressure;Samples;Min_cycle;Max_cycle;Signal;HPM_P1;HPM_P2
2022/03/26 00:00:09;;;;;;;54.10;32.10;;;;;;;;;;5100674;28;20020;-58
2022/03/26 00:02:35;;;;;;;47.22;29.70;;;;;;;;;;5097826;28;20028;-59
2022/03/26 00:05:01;;;;;;;53.08;31.58;;;;;;;;;;5102762;28;20457;-58
2022/03/26 00:07:28;;;;;;;59.00;32.10;;;;;;;;;;5099273;28;20028;-57
2022/03/26 00:09:54;;;;;;;49.13;30.52;;;;;;;;;;5098959;28;20751;-58
2022/03/26 00:12:20;;;;;;;51.67;30.40;;;;;;;;;;5097194;28;20461;-58
2022/03/26 00:14:46;;;;;;;50.95;30.65;;;;;;;;;;5094790;28;20110;-57
2022/03/26 00:17:12;;;;;;;53.90;31.02;;;;;;;;;;5097439;28;20040;-58
2022/03/26 00:19:38;;;;;;;48.55;30.13;;;;;;;;;;5098187;28;20034;-57
2022/03/26 00:22:04;;;;;;;50.53;29.88;;;;;;;;;;5093918;28;20051;-58
2022/03/26 00:24:30;;;;;;;52.35;30.25;;;;;;;;;;5097837;28;20030;-58
2022/03/26 00:26:56;;;;;;;50.25;31.52;;;;;;;;;;5094810;28;20441;-59
2022/03/26 00:29:22;;;;;;;50.08;29.70;;;;;;;;;;5094651;28;20031;-59
2022/03/26 00:31:48;;;;;;;56.28;31.23;;;;;;;;;;5091703;28;20110;-58
2022/03/26 00:34:15;;;;;;;54.40;30.75;;;;;;;;;;5098959;28;20380;-58
2022/03/26 00:36:40;;;;;;;52.10;31.15;;;;;;;;;;5098565;28;20051;-59
2022/03/26 00:39:07;;;;;;;49.10;30.73;;;;;;;;;;5099782;28;20067;-59
2022/03/26 00:41:33;;;;;;;52.28;29.13;;;;;;;;;;5097881;28;20068;-57
2022/03/26 00:43:59;;;;;;;51.38;29.95;;;;;;;;;;5096264;28;20700;-57
2022/03/26 00:46:25;;;;;;;51.60;29.95;;;;;;;;;;5092338;28;20020;-58
2022/03/26 00:48:51;;;;;;;51.05;30.10;;;;;;;;;;5099094;28;20034;-59
2022/03/26 00:51:17;;;;;;;53.47;30.58;;;;;;;;;;5098025;28;20072;-58
2022/03/26 00:53:44;;;;;;;47.15;29.65;;;;;;;;;;5096172;28;20047;-58
2022/03/26 00:56:10;;;;;;;48.42;29.77;;;;;;;;;;5098667;28;20018;-57
2022/03/26 00:58:36;;;;;;;51.08;30.73;;;;;;;;;;5098980;28;20024;-57
2022/03/26 01:01:02;;;;;;;48.95;29.55;;;;;;;;;;5097528;28;20032;-59
2022/03/26 01:03:28;;;;;;;50.28;29.73;;;;;;;;;;5098679;28;20038;-59
2022/03/26 01:05:54;;;;;;;50.80;30.42;;;;;;;;;;5098985;28;20695;-59
2022/03/26 01:08:20;;;;;;;52.45;29.95;;;;;;;;;;5098603;28;20035;-58
2022/03/26 01:10:46;;;;;;;56.70;30.88;;;;;;;;;;5095571;28;20028;-58
2022/03/26 01:13:13;;;;;;;48.90;29.70;;;;;;;;;;5101015;28;20070;-58
2022/03/26 01:15:39;;;;;;;51.13;29.80;;;;;;;;;;5099600;27;20363;-58
2022/03/26 01:18:06;;;;;;;51.00;30.50;;;;;;;;;;5095698;28;20032;-58
2022/03/26 01:20:32;;;;;;;48.28;28.67;;;;;;;;;;5096296;28;20496;-58
2022/03/26 01:22:59;;;;;;;49.45;29.45;;;;;;;;;;5095729;28;20482;-58
2022/03/26 01:25:25;;;;;;;52.40;29.38;;;;;;;;;;5099095;27;20038;-57
2022/03/26 01:27:51;;;;;;;52.10;30.55;;;;;;;;;;5096597;28;21192;-57
2022/03/26 01:30:17;;;;;;;52.38;29.10;;;;;;;;;;5096689;28;20032;-58
2022/03/26 01:32:44;;;;;;;51.03;28.65;;;;;;;;;;5095905;28;20706;-58
2022/03/26 01:35:11;;;;;;;59.90;30.00;;;;;;;;;;5094963;28;20063;-58
2022/03/26 01:37:36;;;;;;;51.45;29.88;;;;;;;;;;5094989;28;20092;-59
2022/03/26 01:40:03;;;;;;;53.28;29.27;;;;;;;;;;5096636;28;20465;-58
2022/03/26 01:42:29;;;;;;;52.20;30.23;;;;;;;;;;5100402;28;20685;-58
2022/03/26 01:44:55;;;;;;;48.60;28.95;;;;;;;;;;5095069;28;20023;-58
2022/03/26 01:47:21;;;;;;;54.03;29.90;;;;;;;;;;5096107;28;20088;-57
2022/03/26 01:49:47;;;;;;;50.00;28.67;;;;;;;;;;5098913;28;20420;-59
2022/03/26 01:52:13;;;;;;;55.35;30.02;;;;;;;;;;5096007;28;20415;-58
2022/03/26 01:54:40;;;;;;;50.58;30.98;;;;;;;;;;5095396;28;20369;-57
2022/03/26 01:57:06;;;;;;;53.53;29.98;;;;;;;;;;5096457;28;20034;-58
2022/03/26 01:59:33;;;;;;;54.05;31.10;;;;;;;;;;5097529;28;20030;-58
2022/03/26 02:01:59;;;;;;;53.92;29.17;;;;;;;;;;5091611;28;20043;-58
2022/03/26 02:04:25;;;;;;;51.35;28.85;;;;;;;;;;5098512;28;20028;-57
2022/03/26 02:06:51;;;;;;;49.00;29.77;;;;;;;;;;5093380;28;20020;-59
2022/03/26 02:09:17;;;;;;;48.05;28.65;;;;;;;;;;5094281;28;20024;-58
2022/03/26 02:11:44;;;;;;;49.33;29.33;;;;;;;;;;5087362;28;20028;-58
2022/03/26 02:14:11;;;;;;;54.55;28.42;;;;;;;;;;5092334;28;20035;-57
2022/03/26 02:16:38;;;;;;;50.60;29.75;;;;;;;;;;5093198;28;20032;-58
2022/03/26 02:19:06;;;;;;;52.50;30.27;;;;;;;;;;5096726;28;20060;-58
2022/03/26 02:21:34;;;;;;;57.03;29.85;;;;;;;;;;5100095;28;20910;-59
2022/03/26 02:24:00;;;;;;;51.58;29.08;;;;;;;;;;5096192;28;20046;-58
2022/03/26 02:26:26;;;;;;;51.10;29.17;;;;;;;;;;5097095;28;20091;-58
2022/03/26 02:28:53;;;;;;;50.65;30.70;;;;;;;;;;5091456;28;20479;-59
2022/03/26 02:31:19;;;;;;;52.30;29.67;;;;;;;;;;5096302;28;20032;-58
2022/03/26 02:33:45;;;;;;;57.08;29.90;;;;;;;;;;5098597;28;20912;-58
2022/03/26 02:36:11;;;;;;;48.67;29.92;;;;;;;;;;5098615;28;20142;-58
2022/03/26 02:38:38;;;;;;;54.25;30.27;;;;;;;;;;5099385;28;20370;-58
2022/03/26 02:41:04;;;;;;;54.05;28.48;;;;;;;;;;5096542;28;20020;-58
2022/03/26 02:43:30;;;;;;;48.40;28.38;;;;;;;;;;5094823;28;20020;-57
2022/03/26 02:45:56;;;;;;;51.92;30.05;;;;;;;;;;5095299;28;20020;-58
2022/03/26 02:48:22;;;;;;;51.55;30.63;;;;;;;;;;5092625;28;20019;-58
2022/03/26 02:50:48;;;;;;;48.00;28.63;;;;;;;;;;5095763;28;20015;-58
2022/03/26 02:53:14;;;;;;;48.92;29.42;;;;;;;;;;5092273;28;20028;-58
2022/03/26 02:55:40;;;;;;;47.70;28.42;;;;;;;;;;5092208;28;20086;-58
2022/03/26 02:58:07;;;;;;;50.78;29.95;;;;;;;;;;5098202;28;20422;-58
2022/03/26 03:00:34;;;;;;;53.45;29.55;;;;;;;;;;5096774;28;20416;-58
2022/03/26 03:03:00;;;;;;;49.67;29.15;;;;;;;;;;5093664;28;20169;-58
2022/03/26 03:05:26;;;;;;;53.15;28.08;;;;;;;;;;5092471;28;20024;-58
2022/03/26 03:07:52;;;;;;;51.97;29.88;;;;;;;;;;5091534;28;20367;-57
2022/03/26 03:10:18;;;;;;;51.00;29.75;;;;;;;;;;5091536;28;20030;-58
2022/03/26 03:12:47;;;;;;;52.78;29.52;;;;;;;;;;5099112;28;20379;-58
2022/03/26 03:15:16;;;;;;;50.78;28.00;;;;;;;;;;5092546;28;20024;-58
2022/03/26 03:17:42;;;;;;;50.20;27.80;;;;;;;;;;5097565;28;20016;-57
2022/03/26 03:20:09;;;;;;;50.38;28.95;;;;;;;;;;5100893;28;20125;-58
2022/03/26 03:22:36;;;;;;;48.00;29.00;;;;;;;;;;5093389;28;20036;-58
2022/03/26 03:25:03;;;;;;;59.17;29.25;;;;;;;;;;5095514;28;20035;-58
2022/03/26 03:27:29;;;;;;;55.13;31.00;;;;;;;;;;5098339;28;20566;-57
2022/03/26 03:29:55;;;;;;;51.92;28.67;;;;;;;;;;5102133;28;20032;-58
2022/03/26 03:32:21;;;;;;;49.13;29.27;;;;;;;;;;5090916;28;21610;-58
2022/03/26 03:34:47;;;;;;;53.72;29.50;;;;;;;;;;5097703;28;20396;-58
2022/03/26 03:37:13;;;;;;;46.40;28.40;;;;;;;;;;5090437;28;21646;-58
2022/03/26 03:39:39;;;;;;;48.75;28.30;;;;;;;;;;5098721;28;20031;-58
2022/03/26 03:42:05;;;;;;;50.03;27.70;;;;;;;;;;5097730;28;20141;-58
2022/03/26 03:44:31;;;;;;;49.17;28.85;;;;;;;;;;5101901;28;20028;-57
2022/03/26 03:46:57;;;;;;;52.15;30.02;;;;;;;;;;5099693;28;20038;-57
2022/03/26 03:49:26;;;;;;;50.70;28.58;;;;;;;;;;5098938;28;20106;-57
2022/03/26 03:51:52;;;;;;;53.33;28.80;;;;;;;;;;5098817;28;20027;-58
2022/03/26 03:54:18;;;;;;;50.50;28.70;;;;;;;;;;5100437;28;20440;-58
2022/03/26 03:56:44;;;;;;;53.45;28.58;;;;;;;;;;5099703;28;20098;-58
2022/03/26 03:59:12;;;;;;;52.40;28.08;;;;;;;;;;5096759;28;20058;-57
2022/03/26 04:01:38;;;;;;;54.65;29.08;;;;;;;;;;5100899;28;20028;-58
2022/03/26 04:04:04;;;;;;;54.50;28.70;;;;;;;;;;5099694;28;20265;-58
2022/03/26 04:06:30;;;;;;;52.38;28.92;;;;;;;;;;5102424;28;20031;-58
2022/03/26 04:08:56;;;;;;;48.55;27.70;;;;;;;;;;5100357;28;20111;-58
2022/03/26 04:11:22;;;;;;;52.25;28.73;;;;;;;;;;5100172;28;20479;-56
2022/03/26 04:13:52;;;;;;;50.55;29.15;;;;;;;;;;5099597;28;20719;-58
2022/03/26 04:16:18;;;;;;;53.75;29.65;;;;;;;;;;5099040;28;20070;-58
2022/03/26 04:18:44;;;;;;;54.90;30.35;;;;;;;;;;5102298;28;20055;-58
2022/03/26 04:21:10;;;;;;;48.60;27.90;;;;;;;;;;5102019;27;20095;-58
2022/03/26 04:23:36;;;;;;;47.30;27.77;;;;;;;;;;5097960;28;20400;-58
2022/03/26 04:26:02;;;;;;;50.70;29.20;;;;;;;;;;5095947;28;20020;-58
2022/03/26 04:28:28;;;;;;;52.63;28.98;;;;;;;;;;5097473;28;20404;-58
2022/03/26 04:30:54;;;;;;;48.95;27.63;;;;;;;;;;5095271;28;20023;-58
2022/03/26 04:33:20;;;;;;;49.45;28.90;;;;;;;;;;5098414;28;20016;-58
2022/03/26 04:35:46;;;;;;;50.70;29.83;;;;;;;;;;5098372;28;20724;-58
2022/03/26 04:38:12;;;;;;;49.50;28.27;;;;;;;;;;5099178;28;20483;-58
2022/03/26 04:40:38;;;;;;;50.67;27.40;;;;;;;;;;5093580;28;20016;-58
2022/03/26 04:43:04;;;;;;;50.20;28.50;;;;;;;;;;5091107;28;20028;-58
2022/03/26 04:45:32;;;;;;;50.53;28.38;;;;;;;;;;5097872;28;20420;-56
2022/03/26 04:47:58;;;;;;;49.60;28.40;;;;;;;;;;5098426;28;20050;-58
2022/03/26 04:50:24;;;;;;;47.20;28.52;;;;;;;;;;5101451;28;20019;-58
2022/03/26 04:52:50;;;;;;;53.83;29.35;;;;;;;;;;5097476;28;20430;-58
2022/03/26 04:55:18;;;;;;;48.38;28.55;;;;;;;;;;5099727;27;20020;-58
2022/03/26 04:57:45;;;;;;;47.70;26.70;;;;;;;;;;5101377;27;20523;-58
2022/03/26 05:00:12;;;;;;;50.38;26.98;;;;;;;;;;5099157;28;20024;-56
2022/03/26 05:02:39;;;;;;;50.75;27.08;;;;;;;;;;5097875;28;20024;-58
2022/03/26 05:05:05;;;;;;;49.17;27.25;;;;;;;;;;5098178;27;20113;-56
2022/03/26 05:07:46;;;;;;;47.40;27.52;;;;;;;;;;5093163;28;20032;-58
2022/03/26 05:10:14;;;;;;;53.60;27.67;;;;;;;;;;5097308;28;20098;-57
2022/03/26 05:12:40;;;;;;;49.15;27.17;;;;;;;;;;5098876;28;20118;-57
2022/03/26 05:15:06;;;;;;;50.63;27.83;;;;;;;;;;5098100;28;20723;-58
2022/03/26 05:17:32;;;;;;;53.20;29.08;;;;;;;;;;5095911;27;20016;-58
2022/03/26 05:19:58;;;;;;;53.35;28.00;;;;;;;;;;5094829;28;20019;-58
2022/03/26 05:22:23;;;;;;;54.30;28.85;;;;;;;;;;5097083;28;20352;-58
2022/03/26 05:24:50;;;;;;;49.65;28.15;;;;;;;;;;5094059;28;20444;-57
2022/03/26 05:27:15;;;;;;;51.45;28.52;;;;;;;;;;5094251;28;20050;-58
2022/03/26 05:29:41;;;;;;;46.45;26.48;;;;;;;;;;5099543;28;20407;-58
2022/03/26 05:32:08;;;;;;;52.10;29.45;;;;;;;;;;5097710;28;20059;-57
2022/03/26 05:34:34;;;;;;;46.83;26.58;;;;;;;;;;5100964;28;20019;-58
2022/03/26 05:37:00;;;;;;;46.70;26.48;;;;;;;;;;5097234;28;20110;-58
2022/03/26 05:39:26;;;;;;;54.13;27.15;;;;;;;;;;5095558;28;20371;-57
2022/03/26 05:41:52;;;;;;;47.28;27.00;;;;;;;;;;5092130;28;20024;-58
2022/03/26 05:44:18;;;;;;;48.00;26.15;;;;;;;;;;5097085;28;20047;-58
2022/03/26 05:46:44;;;;;;;46.17;27.25;;;;;;;;;;5100191;28;20140;-58
2022/03/26 05:49:10;;;;;;;49.63;27.85;;;;;;;;;;5095766;28;20047;-58
2022/03/26 05:51:36;;;;;;;51.78;27.20;;;;;;;;;;5094352;28;20722;-58
2022/03/26 05:54:02;;;;;;;49.47;26.30;;;;;;;;;;5096568;28;20124;-58
2022/03/26 05:56:28;;;;;;;47.50;25.50;;;;;;;;;;5097944;28;20375;-57
2022/03/26 05:58:54;;;;;;;49.13;26.67;;;;;;;;;;5090097;28;20020;-58
2022/03/26 06:01:22;;;;;;;50.65;27.55;;;;;;;;;;5092200;28;20394;-58
2022/03/26 06:03:48;;;;;;;44.22;25.48;;;;;;;;;;5091996;28;20024;-58
2022/03/26 06:06:14;;;;;;;49.25;26.77;;;;;;;;;;5090179;28;20566;-58
2022/03/26 06:08:40;;;;;;;44.63;25.13;;;;;;;;;;5088113;28;20054;-58
2022/03/26 06:11:06;;;;;;;51.22;26.60;;;;;;;;;;5089482;28;20039;-58
2022/03/26 06:13:33;;;;;;;43.50;25.15;;;;;;;;;;5097044;27;20407;-58
2022/03/26 06:15:58;;;;;;;50.88;28.20;;;;;;;;;;5091054;28;20063;-58
2022/03/26 06:18:25;;;;;;;45.30;25.08;;;;;;;;;;5096801;28;20050;-58
2022/03/26 06:20:51;;;;;;;49.80;27.08;;;;;;;;;;5094500;28;20121;-58
2022/03/26 06:23:18;;;;;;;43.00;24.90;;;;;;;;;;5094915;28;20028;-57
2022/03/26 06:25:44;;;;;;;41.53;25.40;;;;;;;;;;5095401;28;20448;-57
2022/03/26 06:28:10;;;;;;;45.65;26.73;;;;;;;;;;5093917;28;20092;-58
2022/03/26 06:30:36;;;;;;;49.13;26.88;;;;;;;;;;5110074;28;20024;-59
2022/03/26 06:33:02;;;;;;;49.85;28.13;;;;;;;;;;5095234;28;20031;-58
2022/03/26 06:35:28;;;;;;;58.85;30.00;;;;;;;;;;5095887;28;20020;-56
2022/03/26 06:37:54;;;;;;;49.38;27.85;;;;;;;;;;5095906;28;20130;-58
2022/03/26 06:40:20;;;;;;;50.28;28.45;;;;;;;;;;5095344;28;20106;-55
2022/03/26 06:42:46;;;;;;;54.42;28.52;;;;;;;;;;5098233;28;20418;-55
2022/03/26 06:45:12;;;;;;;49.38;28.55;;;;;;;;;;5095013;28;20028;-55
2022/03/26 06:47:39;;;;;;;51.38;28.55;;;;;;;;;;5093205;28;20384;-55
2022/03/26 06:50:05;;;;;;;51.75;28.40;;;;;;;;;;5094521;28;20351;-56
2022/03/26 06:52:31;;;;;;;50.25;29.95;;;;;;;;;;5095052;28;20028;-56
2022/03/26 06:54:57;;;;;;;53.78;29.45;;;;;;;;;;5093521;28;20068;-55
2022/03/26 06:57:23;;;;;;;51.65;29.65;;;;;;;;;;5097790;28;20028;-55
2022/03/26 06:59:49;;;;;;;55.00;29.40;;;;;;;;;;5099206;28;20361;-56
2022/03/26 07:02:15;;;;;;;53.67;28.85;;;;;;;;;;5096627;28;20068;-55
2022/03/26 07:04:41;;;;;;;55.65;30.27;;;;;;;;;;5096640;28;20125;-55
2022/03/26 07:07:07;;;;;;;53.92;27.95;;;;;;;;;;5101680;28;20056;-56
2022/03/26 07:09:33;;;;;;;53.30;29.65;;;;;;;;;;5098490;28;20031;-56
2022/03/26 07:11:59;;;;;;;53.58;28.40;;;;;;;;;;5100516;28;20103;-56
2022/03/26 07:14:25;;;;;;;47.05;27.55;;;;;;;;;;5100050;28;20446;-56
2022/03/26 07:16:51;;;;;;;55.47;29.50;;;;;;;;;;5099105;28;20423;-57
2022/03/26 07:19:17;;;;;;;50.67;30.58;;;;;;;;;;5096033;28;20035;-55
2022/03/26 07:21:43;;;;;;;53.85;29.70;;;;;;;;;;5100002;28;20439;-56
2022/03/26 07:24:09;;;;;;;57.05;29.63;;;;;;;;;;5101998;28;20042;-55
2022/03/26 07:26:35;;;;;;;56.25;29.77;;;;;;;;;;5099009;28;20023;-55
2022/03/26 07:29:02;;;;;;;57.80;32.25;;;;;;;;;;5095453;28;20114;-57
2022/03/26 07:31:28;;;;;;;96.80;57.28;;;;;;;;;;5098246;28;20035;-57
2022/03/26 07:33:55;;;;;;;59.90;31.13;;;;;;;;;;5098928;28;20068;-55
2022/03/26 07:36:20;;;;;;;51.00;30.15;;;;;;;;;;5099857;28;20439;-55
2022/03/26 07:38:46;;;;;;;53.65;31.23;;;;;;;;;;5098735;28;20042;-54
2022/03/26 07:41:12;;;;;;;54.60;30.67;;;;;;;;;;5096425;28;20293;-55
2022/03/26 07:43:38;;;;;;;59.47;31.48;;;;;;;;;;5103308;28;20439;-54
2022/03/26 07:46:04;;;;;;;57.80;31.13;;;;;;;;;;5104220;28;20104;-55
2022/03/26 07:48:30;;;;;;;58.90;31.85;;;;;;;;;;5101034;28;20035;-53
2022/03/26 07:50:56;;;;;;;64.50;32.20;;;;;;;;;;5096935;28;20174;-55
2022/03/26 07:53:22;;;;;;;60.50;33.35;;;;;;;;;;5099533;28;20496;-56
2022/03/26 07:55:49;;;;;;;55.40;31.92;;;;;;;;;;5093214;28;20077;-56
2022/03/26 07:58:15;;;;;;;61.83;32.97;;;;;;;;;;5099231;28;20147;-55
2022/03/26 08:00:41;;;;;;;55.03;32.42;;;;;;;;;;5100030;28;20035;-56
2022/03/26 08:03:08;;;;;;;57.13;32.70;;;;;;;;;;5092390;28;20367;-56
2022/03/26 08:05:34;;;;;;;57.55;33.17;;;;;;;;;;5099569;28;20247;-56
2022/03/26 08:08:00;;;;;;;52.42;31.80;;;;;;;;;;5095482;28;20036;-55
2022/03/26 08:10:26;;;;;;;59.83;31.73;;;;;;;;;;5098374;28;20111;-55
2022/03/26 08:12:52;;;;;;;54.90;32.70;;;;;;;;;;5096822;28;20189;-56
2022/03/26 08:15:18;;;;;;;56.72;32.90;;;;;;;;;;5099139;28;20427;-56
2022/03/26 08:17:44;;;;;;;58.65;31.35;;;;;;;;;;5099758;28;20043;-56
2022/03/26 08:20:11;;;;;;;54.25;31.73;;;;;;;;;;5096005;28;20164;-56
2022/03/26 08:22:37;;;;;;;57.70;32.63;;;;;;;;;;5096187;28;20032;-56
2022/03/26 08:25:03;;;;;;;54.90;32.45;;;;;;;;;;5096351;28;20027;-56
2022/03/26 08:27:29;;;;;;;52.20;31.17;;;;;;;;;;5097451;28;20024;-56
2022/03/26 08:29:55;;;;;;;52.22;30.35;;;;;;;;;;5097279;28;20464;-56
2022/03/26 08:32:21;;;;;;;57.08;32.33;;;;;;;;;;5093891;28;20122;-56
2022/03/26 08:34:47;;;;;;;52.42;32.10;;;;;;;;;;5100612;28;20032;-56
2022/03/26 08:37:13;;;;;;;55.13;31.52;;;;;;;;;;5096855;28;20024;-54
2022/03/26 08:39:39;;;;;;;52.60;31.67;;;;;;;;;;5098643;28;20072;-56
2022/03/26 08:42:06;;;;;;;56.92;31.40;;;;;;;;;;5098186;28;20023;-54
2022/03/26 08:44:32;;;;;;;54.45;30.73;;;;;;;;;;5099042;27;20027;-56
2022/03/26 08:47:02;;;;;;;52.30;30.45;;;;;;;;;;5097706;28;20023;-56
2022/03/26 08:49:29;;;;;;;52.35;29.98;;;;;;;;;;5094543;28;20059;-55
2022/03/26 08:51:55;;;;;;;66.20;32.92;;;;;;;;;;5099923;28;20352;-56
2022/03/26 08:54:21;;;;;;;57.78;31.42;;;;;;;;;;5096944;27;20012;-56
2022/03/26 08:56:46;;;;;;;59.08;31.25;;;;;;;;;;5095322;28;20026;-55
2022/03/26 08:59:13;;;;;;;60.88;34.85;;;;;;;;;;5099704;28;20034;-56
2022/03/26 09:01:39;;;;;;;49.53;30.27;;;;;;;;;;5096864;28;20034;-55
2022/03/26 09:04:06;;;;;;;53.63;30.50;;;;;;;;;;5094915;28;20046;-56
2022/03/26 09:06:32;;;;;;;53.17;29.75;;;;;;;;;;5096133;28;20042;-56
2022/03/26 09:08:59;;;;;;;54.30;29.60;;;;;;;;;;5099206;28;20242;-55
2022/03/26 09:11:25;;;;;;;53.40;29.83;;;;;;;;;;5098729;27;20624;-56
2022/03/26 09:13:51;;;;;;;52.50;28.90;;;;;;;;;;5095096;28;20023;-56
2022/03/26 09:16:17;;;;;;;50.83;28.25;;;;;;;;;;5095675;28;20023;-56
2022/03/26 09:18:43;;;;;;;46.47;29.00;;;;;;;;;;5097796;28;20434;-55
2022/03/26 09:21:11;;;;;;;51.67;29.88;;;;;;;;;;5092683;28;20051;-56
2022/03/26 09:23:37;;;;;;;49.50;29.98;;;;;;;;;;5096577;28;20062;-55
2022/03/26 09:26:04;;;;;;;48.13;28.00;;;;;;;;;;5096766;28;20028;-55
2022/03/26 09:28:30;;;;;;;58.47;29.23;;;;;;;;;;5097768;28;20657;-56
2022/03/26 09:30:56;;;;;;;54.10;29.15;;;;;;;;;;5094440;28;20031;-56
2022/03/26 09:33:22;;;;;;;51.15;27.02;;;;;;;;;;5099194;28;20023;-56
2022/03/26 09:35:48;;;;;;;49.83;27.50;;;;;;;;;;5099228;28;20092;-55
2022/03/26 09:38:14;;;;;;;45.97;26.27;;;;;;;;;;5099950;28;20516;-54
2022/03/26 09:40:43;;;;;;;44.10;25.65;;;;;;;;;;5097032;28;20106;-56
2022/03/26 09:43:09;;;;;;;45.53;26.35;;;;;;;;;;5099240;28;20027;-56
2022/03/26 09:45:35;;;;;;;46.90;27.17;;;;;;;;;;5097294;28;20059;-56
2022/03/26 09:48:02;;;;;;;45.33;26.33;;;;;;;;;;5097427;28;20085;-54
2022/03/26 09:50:28;;;;;;;36.47;20.92;;;;;;;;;;5096920;28;20027;-56
2022/03/26 09:52:56;;;;;;;41.50;24.60;;;;;;;;;;5098441;28;20205;-56
2022/03/26 09:55:22;;;;;;;41.95;24.67;;;;;;;;;;5094321;28;20152;-55
2022/03/26 09:57:49;;;;;;;43.33;24.08;;;;;;;;;;5091767;28;20099;-56
2022/03/26 10:00:15;;;;;;;44.88;24.30;;;;;;;;;;5098070;28;20020;-56
2022/03/26 10:02:41;;;;;;;37.53;22.48;;;;;;;;;;5097681;28;20044;-56
2022/03/26 10:05:12;;;;;;;45.13;23.77;;;;;;;;;;5096795;28;20192;-55
2022/03/26 10:07:38;;;;;;;48.20;23.20;;;;;;;;;;5099806;28;20115;-55
2022/03/26 10:10:04;;;;;;;44.30;24.15;;;;;;;;;;5097033;28;20526;-56
2022/03/26 10:12:30;;;;;;;40.50;23.88;;;;;;;;;;5097001;28;20039;-55
2022/03/26 10:14:59;;;;;;;41.45;24.48;;;;;;;;;;5093192;28;20035;-56
2022/03/26 10:17:26;;;;;;;46.33;24.35;;;;;;;;;;5099046;28;20429;-56
2022/03/26 10:19:59;;;;;;;44.70;26.63;;;;;;;;;;5095530;28;20031;-56
2022/03/26 10:22:39;;;;;;;43.25;25.38;;;;;;;;;;5094866;28;20428;-56
2022/03/26 10:25:07;;;;;;;44.80;26.55;;;;;;;;;;5096349;28;20043;-56
2022/03/26 10:27:38;;;;;;;44.25;25.25;;;;;;;;;;5095809;28;20364;-55
2022/03/26 10:30:04;;;;;;;41.88;24.33;;;;;;;;;;5090193;28;20189;-56
2022/03/26 10:32:41;;;;;;;42.05;24.75;;;;;;;;;;5096353;28;20395;-55
2022/03/26 10:35:11;;;;;;;40.35;24.65;;;;;;;;;;5092360;28;20495;-56
2022/03/26 10:37:44;;;;;;;40.70;22.67;;;;;;;;;;5093949;28;20509;-56
2022/03/26 10:40:30;;;;;;;44.60;23.17;;;;;;;;;;5089562;28;20449;-53
2022/03/26 10:42:58;;;;;;;33.92;21.63;;;;;;;;;;5093479;28;20117;-56
2022/03/26 10:45:25;;;;;;;38.47;22.58;;;;;;;;;;5099251;28;20026;-55
2022/03/26 10:47:54;;;;;;;39.88;23.45;;;;;;;;;;5094708;28;20506;-56
2022/03/26 10:50:20;;;;;;;38.38;22.42;;;;;;;;;;5096475;28;20721;-56
2022/03/26 10:52:46;;;;;;;37.28;21.90;;;;;;;;;;5094975;28;20880;-56
2022/03/26 10:55:13;;;;;;;37.75;22.80;;;;;;;;;;5091903;28;20062;-54
2022/03/26 10:57:40;;;;;;;41.47;22.30;;;;;;;;;;5094324;28;20160;-55
2022/03/26 11:00:06;;;;;;;32.40;19.80;;;;;;;;;;5087285;28;20065;-55
2022/03/26 11:02:32;;;;;;;34.28;18.17;;;;;;;;;;5092291;28;20060;-55
2022/03/26 11:04:59;;;;;;;32.90;18.08;;;;;;;;;;5095800;28;20028;-56
2022/03/26 11:07:25;;;;;;;29.95;15.90;;;;;;;;;;5096872;28;20581;-55
2022/03/26 11:09:52;;;;;;;27.05;15.27;;;;;;;;;;5096762;28;20610;-55
2022/03/26 11:12:18;;;;;;;28.10;17.10;;;;;;;;;;5098002;28;20091;-56
2022/03/26 11:14:44;;;;;;;28.83;16.80;;;;;;;;;;5095350;28;20089;-56
2022/03/26 11:17:28;;;;;;;26.40;13.90;;;;;;;;;;5096804;28;20547;-56
2022/03/26 11:19:54;;;;;;;26.63;12.52;;;;;;;;;;5092005;28;20414;-56
2022/03/26 11:22:20;;;;;;;20.77;10.20;;;;;;;;;;5099740;28;20020;-56
2022/03/26 11:24:59;;;;;;;18.83;9.18;;;;;;;;;;5093517;28;20020;-56
2022/03/26 11:27:28;;;;;;;16.05;10.05;;;;;;;;;;5091662;28;20430;-55
2022/03/26 11:30:08;;;;;;;14.98;7.90;;;;;;;;;;5095966;28;20535;-56
2022/03/26 11:32:43;;;;;;;17.73;8.98;;;;;;;;;;5095142;28;20073;-56
2022/03/26 11:35:10;;;;;;;17.00;8.52;;;;;;;;;;5095007;28;20619;-56
2022/03/26 11:37:49;;;;;;;15.30;9.25;;;;;;;;;;5090099;28;20035;-56
2022/03/26 11:40:16;;;;;;;21.60;10.52;;;;;;;;;;5097661;28;20024;-56
2022/03/26 11:42:42;;;;;;;17.27;9.25;;;;;;;;;;5096901;28;20038;-56
2022/03/26 11:50:46;;;;;;;17.98;9.30;;;;;;;;;;5096660;28;20063;-55
2022/03/26 11:53:37;;;;;;;16.30;9.70;;;;;;;;;;5097314;28;20464;-56
2022/03/26 11:56:04;;;;;;;18.77;9.38;;;;;;;;;;5099170;28;20031;-56
2022/03/26 11:58:30;;;;;;;18.90;9.90;;;;;;;;;;5099496;28;20047;-57
2022/03/26 12:00:59;;;;;;;16.95;10.07;;;;;;;;;;5095649;28;20054;-56
2022/03/26 12:03:26;;;;;;;18.45;10.00;;;;;;;;;;5096858;28;20562;-56
2022/03/26 12:08:42;;;;;;;12.95;8.40;;;;;;;;;;5092408;28;20055;-56
2022/03/26 12:11:08;;;;;;;15.55;9.68;;;;;;;;;;5094827;28;20050;-54
2022/03/26 12:13:34;;;;;;;16.15;9.75;;;;;;;;;;5092023;28;20039;-56
2022/03/26 12:16:01;;;;;;;15.00;9.07;;;;;;;;;;5095025;28;20175;-56
2022/03/26 12:18:35;;;;;;;14.55;9.05;;;;;;;;;;5094720;28;20035;-56
2022/03/26 12:21:21;;;;;;;16.10;9.13;;;;;;;;;;5098324;28;20020;-54
2022/03/26 12:23:47;;;;;;;16.48;8.27;;;;;;;;;;5098502;28;20451;-54
2022/03/26 12:26:13;;;;;;;11.20;6.80;;;;;;;;;;5095738;28;20101;-56
2022/03/26 12:28:40;;;;;;;11.23;6.25;;;;;;;;;;5097794;28;20386;-55
2022/03/26 12:31:07;;;;;;;16.33;7.30;;;;;;;;;;5096755;28;20043;-55
2022/03/26 12:33:43;;;;;;;15.35;7.50;;;;;;;;;;5097273;28;20028;-56
2022/03/26 12:36:10;;;;;;;12.38;7.13;;;;;;;;;;5099192;28;20034;-56
2022/03/26 12:38:36;;;;;;;14.23;7.47;;;;;;;;;;5099277;28;20012;-56
2022/03/26 12:41:04;;;;;;;12.23;7.32;;;;;;;;;;5097562;28;20169;-56
2022/03/26 12:43:30;;;;;;;14.43;8.10;;;;;;;;;;5093422;28;20027;-56
2022/03/26 12:45:58;;;;;;;13.65;8.20;;;;;;;;;;5099017;28;20138;-56
2022/03/26 12:48:26;;;;;;;14.32;7.90;;;;;;;;;;5100430;28;20034;-56
2022/03/26 12:50:52;;;;;;;11.77;7.68;;;;;;;;;;5096736;28;20359;-56
2022/03/26 12:53:19;;;;;;;12.85;8.00;;;;;;;;;;5096271;28;20097;-54
2022/03/26 12:55:58;;;;;;;15.38;7.65;;;;;;;;;;5094388;28;20231;-55
2022/03/26 13:01:11;;;;;;;12.05;8.65;;;;;;;;;;5097143;28;20117;-56
2022/03/26 13:03:37;;;;;;;11.98;8.13;;;;;;;;;;5096113;27;20016;-55
2022/03/26 13:06:04;;;;;;;12.15;8.07;;;;;;;;;;5099616;28;20045;-55
2022/03/26 13:08:30;;;;;;;13.30;7.78;;;;;;;;;;5096762;28;20024;-56
2022/03/26 13:10:56;;;;;;;12.65;7.32;;;;;;;;;;5098919;28;20054;-56
2022/03/26 13:13:24;;;;;;;11.55;7.57;;;;;;;;;;5099452;28;20024;-55
2022/03/26 13:16:00;;;;;;;15.38;7.57;;;;;;;;;;5093905;28;20032;-56
2022/03/26 13:18:26;;;;;;;11.77;7.70;;;;;;;;;;5094428;28;20251;-55
2022/03/26 13:20:52;;;;;;;13.25;8.88;;;;;;;;;;5095892;28;20019;-56
2022/03/26 13:23:18;;;;;;;13.38;8.30;;;;;;;;;;5096340;28;20039;-56
2022/03/26 13:25:45;;;;;;;12.68;8.25;;;;;;;;;;5100399;28;20727;-56
2022/03/26 13:28:22;;;;;;;11.93;7.53;;;;;;;;;;5095285;28;20112;-54
2022/03/26 13:30:49;;;;;;;14.05;8.43;;;;;;;;;;5096588;28;20093;-56
2022/03/26 13:33:19;;;;;;;11.20;7.07;;;;;;;;;;5096925;28;20240;-56
2022/03/26 13:35:49;;;;;;;10.65;7.35;;;;;;;;;;5097626;28;20026;-56
2022/03/26 13:38:15;;;;;;;12.02;7.10;;;;;;;;;;5095519;28;20152;-55
2022/03/26 13:40:40;;;;;;;15.18;7.00;;;;;;;;;;5098728;28;20023;-56
2022/03/26 13:43:07;;;;;;;11.50;6.70;;;;;;;;;;5094502;28;20352;-55
2022/03/26 13:45:33;;;;;;;15.90;7.38;;;;;;;;;;5091352;28;20085;-55
2022/03/26 13:47:59;;;;;;;12.13;6.75;;;;;;;;;;5098173;28;20031;-56
2022/03/26 13:50:25;;;;;;;12.40;6.00;;;;;;;;;;5095533;28;20054;-55
2022/03/26 13:52:53;;;;;;;9.27;5.72;;;;;;;;;;5096254;28;20482;-55
2022/03/26 13:55:19;;;;;;;9.98;5.38;;;;;;;;;;5095285;28;20024;-54
2022/03/26 13:57:48;;;;;;;10.70;5.45;;;;;;;;;;5094004;28;20096;-56
2022/03/26 14:00:15;;;;;;;9.43;5.82;;;;;;;;;;5095956;28;20027;-56
2022/03/26 14:02:41;;;;;;;8.95;5.63;;;;;;;;;;5094076;28;20036;-55
2022/03/26 14:05:17;;;;;;;11.57;5.60;;;;;;;;;;5098633;28;20490;-55
2022/03/26 14:07:44;;;;;;;14.25;6.20;;;;;;;;;;5091946;28;20483;-54
2022/03/26 14:10:11;;;;;;;10.93;5.65;;;;;;;;;;5092325;28;20035;-56
2022/03/26 14:12:37;;;;;;;10.82;6.32;;;;;;;;;;5093613;28;20027;-54
2022/03/26 14:15:04;;;;;;;10.80;7.32;;;;;;;;;;5096858;28;20028;-55
2022/03/26 14:17:30;;;;;;;55.47;29.77;;;;;;;;;;5094028;28;20231;-55
2022/03/26 14:19:56;;;;;;;13.38;7.25;;;;;;;;;;5093432;28;20136;-55
2022/03/26 14:22:21;;;;;;;12.68;7.10;;;;;;;;;;5098259;28;20035;-55
2022/03/26 14:24:47;;;;;;;11.70;6.75;;;;;;;;;;5095719;28;20019;-55
2022/03/26 14:27:13;;;;;;;10.18;6.65;;;;;;;;;;5095251;28;20032;-56